sensor_id;sensor_type;location;lat;lon;timestamp;pressure;altitude;pressure_sealevel;temperature;humidity
33280;BME280;20403;43.114;12.434;2022-12-16T00:01:41;97940.19;;;11.73;100.00
33280;BME280;20403;43.114;12.434;2022-12-16T00:04:06;97937.31;;;11.65;100.00
33280;BME280;20403;43.114;12.434;2022-12-16T00:06:32;97933.63;;;11.61;100.00
33280;BME280;20403;43.114;12.434;2022-12-16T00:08:58;97930.25;;;11.60;100.00
33280;BME280;20403;43.114;12.434;2022-12-16T00:11:23;97924.97;;;11.55;100.00
33280;BME280;20403;43.114;12.434;2022-12-16T00:13:49;97904.59;;;11.47;100.00
33280;BME280;20403;43.114;12.434;2022-12-16T00:16:15;97902.78;;;11.42;100.00
33280;BME280;20403;43.114;12.434;2022-12-16T00:18:40;97901.94;;;11.36;100.00
33280;BME280;20403;43.114;12.434;2022-12-16T00:21:06;97899.88;;;11.39;100.00
33280;BME280;20403;43.114;12.434;2022-12-16T00:23:32;97887.06;;;11.32;100.00
33280;BME280;20403;43.114;12.434;2022-12-16T00:25:57;97880.81;;;11.28;100.00
33280;BME280;20403;43.114;12.434;2022-12-16T00:28:23;97882.13;;;11.35;100.00
33280;BME280;20403;43.114;12.434;2022-12-16T00:30:49;97899.00;;;11.18;100.00
33280;BME280;20403;43.114;12.434;2022-12-16T00:33:15;97907.06;;;11.11;100.00
33280;BME280;20403;43.114;12.434;2022-12-16T00:35:40;97916.47;;;11.12;100.00
33280;BME280;20403;43.114;12.434;2022-12-16T00:38:06;97919.34;;;11.10;100.00
33280;BME280;20403;43.114;12.434;2022-12-16T00:40:32;97925.63;;;11.14;100.00
33280;BME280;20403;43.114;12.434;2022-12-16T00:42:57;97934.22;;;11.15;100.00
33280;BME280;20403;43.114;12.434;2022-12-16T00:45:22;97923.00;;;11.14;100.00
33280;BME280;20403;43.114;12.434;2022-12-16T00:47:48;97923.00;;;11.14;100.00
33280;BME280;20403;43.114;12.434;2022-12-16T00:50:14;97916.47;;;11.07;100.00
33280;BME280;20403;43.114;12.434;2022-12-16T00:52:39;97914.88;;;11.06;100.00
33280;BME280;20403;43.114;12.434;2022-12-16T00:55:05;97915.94;;;11.05;100.00
33280;BME280;20403;43.114;12.434;2022-12-16T00:57:30;97924.03;;;11.08;100.00
33280;BME280;20403;43.114;12.434;2022-12-16T00:59:55;97919.84;;;11.07;100.00
33280;BME280;20403;43.114;12.434;2022-12-16T01:02:21;97934.97;;;11.05;100.00
33280;BME280;20403;43.114;12.434;2022-12-16T01:04:46;97933.91;;;11.06;100.00
33280;BME280;20403;43.114;12.434;2022-12-16T01:07:11;97934.94;;;11.00;100.00
33280;BME280;20403;43.114;12.434;2022-12-16T01:09:37;97936.75;;;11.00;100.00
33280;BME280;20403;43.114;12.434;2022-12-16T01:12:02;97938.34;;;11.01;100.00
33280;BME280;20403;43.114;12.434;2022-12-16T01:14:27;97934.94;;;11.00;100.00
33280;BME280;20403;43.114;12.434;2022-12-16T01:16:52;97934.69;;;11.02;100.00
33280;BME280;20403;43.114;12.434;2022-12-16T01:19:18;97938.56;;;10.99;100.00
33280;BME280;20403;43.114;12.434;2022-12-16T01:21:43;97947.22;;;11.05;100.00
33280;BME280;20403;43.114;12.434;2022-12-16T01:24:09;97943.31;;;11.02;100.00
33280;BME280;20403;43.114;12.434;2022-12-16T01:26:34;97939.97;;;11.12;100.00
33280;BME280;20403;43.114;12.434;2022-12-16T01:29:00;97937.88;;;11.14;100.00
33280;BME280;20403;43.114;12.434;2022-12-16T01:31:25;97943.59;;;11.11;100.00
33280;BME280;20403;43.114;12.434;2022-12-16T01:33:50;97940.50;;;11.14;100.00
33280;BME280;20403;43.114;12.434;2022-12-16T01:36:15;97935.09;;;11.36;100.00
33280;BME280;20403;43.114;12.434;2022-12-16T01:38:42;97937.75;;;11.46;100.00
33280;BME280;20403;43.114;12.434;2022-12-16T01:41:08;97940.94;;;11.59;100.00
33280;BME280;20403;43.114;12.434;2022-12-16T01:43:34;97934.94;;;11.53;100.00
33280;BME280;20403;43.114;12.434;2022-12-16T01:46:05;97935.94;;;11.52;100.00
33280;BME280;20403;43.114;12.434;2022-12-16T01:48:37;97926.00;;;11.44;100.00
33280;BME280;20403;43.114;12.434;2022-12-16T01:51:06;97930.19;;;11.50;100.00
33280;BME280;20403;43.114;12.434;2022-12-16T01:53:32;97923.13;;;11.45;100.00
33280;BME280;20403;43.114;12.434;2022-12-16T01:55:59;97914.75;;;11.38;100.00
33280;BME280;20403;43.114;12.434;2022-12-16T01:58:26;97916.34;;;11.39;100.00
33280;BME280;20403;43.114;12.434;2022-12-16T02:00:53;97917.59;;;11.36;100.00
33280;BME280;20403;43.114;12.434;2022-12-16T02:03:19;97911.06;;;11.34;100.00
33280;BME280;20403;43.114;12.434;2022-12-16T02:05:44;97909.53;;;11.38;100.00
33280;BME280;20403;43.114;12.434;2022-12-16T02:08:12;97908.00;;;11.42;100.00
33280;BME280;20403;43.114;12.434;2022-12-16T02:13:08;97905.63;;;11.41;100.00
33280;BME280;20403;43.114;12.434;2022-12-16T02:18:24;97891.03;;;11.55;100.00
33280;BME280;20403;43.114;12.434;2022-12-16T02:20:56;97888.72;;;11.59;100.00
33280;BME280;20403;43.114;12.434;2022-12-16T02:28:41;97892.63;;;11.66;100.00
33280;BME280;20403;43.114;12.434;2022-12-16T02:31:20;97899.69;;;11.55;100.00
33280;BME280;20403;43.114;12.434;2022-12-16T02:38:48;97880.94;;;11.94;100.00
33280;BME280;20403;43.114;12.434;2022-12-16T02:41:26;97866.59;;;12.02;100.00
33280;BME280;20403;43.114;12.434;2022-12-16T02:44:02;97871.31;;;12.15;100.00
33280;BME280;20403;43.114;12.434;2022-12-16T02:46:29;97878.34;;;12.10;100.00
33280;BME280;20403;43.114;12.434;2022-12-16T02:48:56;97872.38;;;12.04;100.00
33280;BME280;20403;43.114;12.434;2022-12-16T02:51:22;97881.22;;;11.98;100.00
33280;BME280;20403;43.114;12.434;2022-12-16T02:53:49;97886.97;;;11.90;100.00
33280;BME280;20403;43.114;12.434;2022-12-16T02:58:56;97888.75;;;11.74;100.00
33280;BME280;20403;43.114;12.434;2022-12-16T03:01:34;97882.97;;;11.67;100.00
33280;BME280;20403;43.114;12.434;2022-12-16T03:06:46;97893.94;;;11.53;100.00
33280;BME280;20403;43.114;12.434;2022-12-16T03:09:12;97897.56;;;11.42;100.00
33280;BME280;20403;43.114;12.434;2022-12-16T03:11:39;97900.41;;;11.35;100.00
33280;BME280;20403;43.114;12.434;2022-12-16T03:14:07;97909.53;;;11.38;100.00
33280;BME280;20403;43.114;12.434;2022-12-16T03:16:33;97913.22;;;11.42;100.00
33280;BME280;20403;43.114;12.434;2022-12-16T03:19:02;97915.53;;;11.39;100.00
33280;BME280;20403;43.114;12.434;2022-12-16T03:21:31;97918.38;;;11.32;100.00
33280;BME280;20403;43.114;12.434;2022-12-16T03:23:59;97927.00;;;11.32;100.00
33280;BME280;20403;43.114;12.434;2022-12-16T03:26:36;97932.72;;;11.29;100.00
33280;BME280;20403;43.114;12.434;2022-12-16T03:29:07;97938.22;;;11.33;100.00
33280;BME280;20403;43.114;12.434;2022-12-16T03:34:11;97933.78;;;11.28;100.00
33280;BME280;20403;43.114;12.434;2022-12-16T03:36:38;97937.41;;;11.27;100.00
33280;BME280;20403;43.114;12.434;2022-12-16T03:39:05;97945.50;;;11.26;100.00
33280;BME280;20403;43.114;12.434;2022-12-16T03:41:31;97952.06;;;11.33;100.00
33280;BME280;20403;43.114;12.434;2022-12-16T03:43:58;97947.84;;;11.27;100.00
33280;BME280;20403;43.114;12.434;2022-12-16T03:46:23;97936.63;;;11.27;100.00
33280;BME280;20403;43.114;12.434;2022-12-16T03:48:49;97936.69;;;11.37;100.00
33280;BME280;20403;43.114;12.434;2022-12-16T03:51:15;97936.16;;;11.35;100.00
33280;BME280;20403;43.114;12.434;2022-12-16T03:53:41;97931.78;;;11.51;100.00
33280;BME280;20403;43.114;12.434;2022-12-16T03:56:06;97935.69;;;11.48;100.00
33280;BME280;20403;43.114;12.434;2022-12-16T03:58:32;97927.84;;;11.48;100.00
33280;BME280;20403;43.114;12.434;2022-12-16T04:00:59;97922.88;;;11.47;100.00
33280;BME280;20403;43.114;12.434;2022-12-16T04:03:24;97910.38;;;11.49;100.00
33280;BME280;20403;43.114;12.434;2022-12-16T04:05:49;97927.34;;;11.56;100.00
33280;BME280;20403;43.114;12.434;2022-12-16T04:08:15;97923.72;;;11.68;100.00
33280;BME280;20403;43.114;12.434;2022-12-16T04:10:40;97917.25;;;11.86;100.00
33280;BME280;20403;43.114;12.434;2022-12-16T04:13:24;97919.84;;;11.86;100.00
33280;BME280;20403;43.114;12.434;2022-12-16T04:16:10;97930.63;;;12.05;100.00
33280;BME280;20403;43.114;12.434;2022-12-16T04:18:56;97916.78;;;12.09;100.00
33280;BME280;20403;43.114;12.434;2022-12-16T04:21:40;97923.56;;;12.10;100.00
33280;BME280;20403;43.114;12.434;2022-12-16T04:24:24;97921.19;;;12.04;100.00
33280;BME280;20403;43.114;12.434;2022-12-16T04:26:51;97920.13;;;11.94;100.00
33280;BME280;20403;43.114;12.434;2022-12-16T04:29:35;97922.44;;;11.75;100.00
33280;BME280;20403;43.114;12.434;2022-12-16T04:32:20;97927.09;;;11.63;100.00
33280;BME280;20403;43.114;12.434;2022-12-16T04:34:46;97928.41;;;11.66;100.00
33280;BME280;20403;43.114;12.434;2022-12-16T04:37:11;97926.41;;;11.88;100.00
33280;BME280;20403;43.114;12.434;2022-12-16T04:39:55;97930.88;;;11.93;100.00
33280;BME280;20403;43.114;12.434;2022-12-16T04:42:39;97936.88;;;11.88;100.00
33280;BME280;20403;43.114;12.434;2022-12-16T04:45:23;97936.84;;;11.83;100.00
33280;BME280;20403;43.114;12.434;2022-12-16T04:48:07;97941.25;;;11.77;100.00
33280;BME280;20403;43.114;12.434;2022-12-16T04:50:51;97936.25;;;11.61;100.00
33280;BME280;20403;43.114;12.434;2022-12-16T04:53:34;97940.94;;;11.59;100.00
33280;BME280;20403;43.114;12.434;2022-12-16T04:56:18;97938.53;;;11.47;100.00
33280;BME280;20403;43.114;12.434;2022-12-16T04:59:02;97928.88;;;11.42;100.00
33280;BME280;20403;43.114;12.434;2022-12-16T05:01:46;97931.47;;;11.42;100.00
33280;BME280;20403;43.114;12.434;2022-12-16T05:04:30;97928.34;;;11.40;100.00
33280;BME280;20403;43.114;12.434;2022-12-16T05:07:14;97934.59;;;11.39;100.00
33280;BME280;20403;43.114;12.434;2022-12-16T05:09:58;97940.06;;;11.32;100.00
33280;BME280;20403;43.114;12.434;2022-12-16T05:12:42;97947.63;;;11.34;100.00
33280;BME280;20403;43.114;12.434;2022-12-16T05:15:26;97946.31;;;11.36;100.00
33280;BME280;20403;43.114;12.434;2022-12-16T05:18:11;97955.97;;;11.31;100.00
33280;BME280;20403;43.114;12.434;2022-12-16T05:20:56;97959.34;;;11.31;100.00
33280;BME280;20403;43.114;12.434;2022-12-16T05:23:39;97966.16;;;11.32;100.00
33280;BME280;20403;43.114;12.434;2022-12-16T05:26:23;97972.94;;;11.33;100.00
33280;BME280;20403;43.114;12.434;2022-12-16T05:29:07;97963.03;;;11.35;100.00
33280;BME280;20403;43.114;12.434;2022-12-16T05:31:51;97961.75;;;11.43;100.00
33280;BME280;20403;43.114;12.434;2022-12-16T05:34:49;97965.16;;;11.44;100.00
33280;BME280;20403;43.114;12.434;2022-12-16T05:37:32;97960.44;;;11.46;100.00
33280;BME280;20403;43.114;12.434;2022-12-16T05:40:16;97974.84;;;11.48;100.00
33280;BME280;20403;43.114;12.434;2022-12-16T05:43:00;97973.53;;;11.51;100.00
33280;BME280;20403;43.114;12.434;2022-12-16T05:45:44;97970.41;;;11.49;100.00
33280;BME280;20403;43.114;12.434;2022-12-16T05:48:28;97978.50;;;11.52;100.00
33280;BME280;20403;43.114;12.434;2022-12-16T05:51:12;97981.94;;;11.63;100.00
33280;BME280;20403;43.114;12.434;2022-12-16T05:53:56;97985.09;;;11.75;100.00
33280;BME280;20403;43.114;12.434;2022-12-16T05:56:40;97987.72;;;11.81;100.00
33280;BME280;20403;43.114;12.434;2022-12-16T05:59:23;97983.63;;;11.95;100.00
33280;BME280;20403;43.114;12.434;2022-12-16T06:02:07;97987.56;;;12.03;100.00
33280;BME280;20403;43.114;12.434;2022-12-16T06:04:51;97980.81;;;12.27;100.00
33280;BME280;20403;43.114;12.434;2022-12-16T06:07:35;97987.09;;;12.31;100.00
33280;BME280;20403;43.114;12.434;2022-12-16T06:10:19;97985.81;;;12.34;100.00
33280;BME280;20403;43.114;12.434;2022-12-16T06:13:03;97989.69;;;12.31;100.00
33280;BME280;20403;43.114;12.434;2022-12-16T06:15:47;97981.34;;;12.34;100.00
33280;BME280;20403;43.114;12.434;2022-12-16T06:18:31;97988.66;;;12.43;100.00
33280;BME280;20403;43.114;12.434;2022-12-16T06:21:15;97994.94;;;12.36;100.00
33280;BME280;20403;43.114;12.434;2022-12-16T06:23:59;97995.97;;;12.30;100.00
33280;BME280;20403;43.114;12.434;2022-12-16T06:26:42;98002.75;;;12.26;100.00
33280;BME280;20403;43.114;12.434;2022-12-16T06:29:26;97998.31;;;12.11;100.00
33280;BME280;20403;43.114;12.434;2022-12-16T06:32:10;98017.38;;;12.17;100.00
33280;BME280;20403;43.114;12.434;2022-12-16T06:34:54;98013.69;;;12.03;100.00
33280;BME280;20403;43.114;12.434;2022-12-16T06:37:38;98012.09;;;11.96;100.00
33280;BME280;20403;43.114;12.434;2022-12-16T06:40:22;98023.06;;;11.88;100.00
33280;BME280;20403;43.114;12.434;2022-12-16T06:43:06;98028.50;;;11.87;100.00
33280;BME280;20403;43.114;12.434;2022-12-16T06:45:50;98027.44;;;11.77;100.00
33280;BME280;20403;43.114;12.434;2022-12-16T06:48:33;98025.34;;;11.80;100.00
33280;BME280;20403;43.114;12.434;2022-12-16T06:51:17;98026.13;;;11.75;100.00
33280;BME280;20403;43.114;12.434;2022-12-16T06:54:01;98028.47;;;11.76;100.00
33280;BME280;20403;43.114;12.434;2022-12-16T06:56:45;98042.56;;;11.81;100.00
33280;BME280;20403;43.114;12.434;2022-12-16T06:59:29;98042.84;;;11.74;100.00
33280;BME280;20403;43.114;12.434;2022-12-16T07:02:13;98054.41;;;11.88;100.00
33280;BME280;20403;43.114;12.434;2022-12-16T07:04:57;98054.09;;;11.85;100.00
33280;BME280;20403;43.114;12.434;2022-12-16T07:07:47;98061.94;;;11.85;100.00
33280;BME280;20403;43.114;12.434;2022-12-16T07:10:32;98070.53;;;11.85;100.00
33280;BME280;20403;43.114;12.434;2022-12-16T07:13:15;98071.41;;;11.91;100.00
33280;BME280;20403;43.114;12.434;2022-12-16T07:15:59;98074.28;;;11.94;100.00
33280;BME280;20403;43.114;12.434;2022-12-16T07:18:43;98071.59;;;11.84;100.00
33280;BME280;20403;43.114;12.434;2022-12-16T07:21:27;98074.72;;;11.81;100.00
33280;BME280;20403;43.114;12.434;2022-12-16T07:24:11;98065.03;;;11.76;100.00
33280;BME280;20403;43.114;12.434;2022-12-16T07:26:55;98059.81;;;11.76;100.00
33280;BME280;20403;43.114;12.434;2022-12-16T07:29:39;98068.22;;;11.84;100.00
33280;BME280;20403;43.114;12.434;2022-12-16T07:32:23;98066.09;;;11.81;100.00
33280;BME280;20403;43.114;12.434;2022-12-16T07:35:07;98064.59;;;11.90;100.00
33280;BME280;20403;43.114;12.434;2022-12-16T07:37:50;98070.66;;;12.01;100.00
33280;BME280;20403;43.114;12.434;2022-12-16T07:40:46;98068.63;;;12.23;100.00
33280;BME280;20403;43.114;12.434;2022-12-16T07:43:30;98071.78;;;12.40;100.00
33280;BME280;20403;43.114;12.434;2022-12-16T07:46:14;98073.94;;;12.64;100.00
33280;BME280;20403;43.114;12.434;2022-12-16T07:48:58;98058.78;;;12.81;100.00
33280;BME280;20403;43.114;12.434;2022-12-16T07:51:42;98068.97;;;12.98;100.00
33280;BME280;20403;43.114;12.434;2022-12-16T07:54:26;98063.22;;;13.12;100.00
33280;BME280;20403;43.114;12.434;2022-12-16T07:57:10;98056.41;;;13.21;100.00
33280;BME280;20403;43.114;12.434;2022-12-16T07:59:53;98072.63;;;13.18;100.00
33280;BME280;20403;43.114;12.434;2022-12-16T08:02:37;98071.84;;;13.22;100.00
33280;BME280;20403;43.114;12.434;2022-12-16T08:05:21;98062.97;;;13.34;100.00
33280;BME280;20403;43.114;12.434;2022-12-16T08:08:05;98068.19;;;13.34;100.00
33280;BME280;20403;43.114;12.434;2022-12-16T08:10:49;98067.66;;;13.37;100.00
33280;BME280;20403;43.114;12.434;2022-12-16T08:13:33;98072.34;;;13.40;100.00
33280;BME280;20403;43.114;12.434;2022-12-16T08:16:17;98071.31;;;13.41;100.00
33280;BME280;20403;43.114;12.434;2022-12-16T08:19:01;98083.13;;;13.38;100.00
33280;BME280;20403;43.114;12.434;2022-12-16T08:21:45;98100.66;;;13.33;100.00
33280;BME280;20403;43.114;12.434;2022-12-16T08:24:28;98101.69;;;13.27;100.00
33280;BME280;20403;43.114;12.434;2022-12-16T08:27:12;98122.63;;;13.16;100.00
33280;BME280;20403;43.114;12.434;2022-12-16T08:29:56;98117.13;;;13.08;100.00
33280;BME280;20403;43.114;12.434;2022-12-16T08:32:54;98115.56;;;13.01;100.00
33280;BME280;20403;43.114;12.434;2022-12-16T08:35:38;98128.66;;;13.01;100.00
33280;BME280;20403;43.114;12.434;2022-12-16T08:38:22;98139.63;;;12.98;100.00
33280;BME280;20403;43.114;12.434;2022-12-16T08:41:05;98154.28;;;12.94;100.00
33280;BME280;20403;43.114;12.434;2022-12-16T08:43:49;98162.41;;;12.98;100.00
33280;BME280;20403;43.114;12.434;2022-12-16T08:46:33;98160.06;;;13.01;100.00
33280;BME280;20403;43.114;12.434;2022-12-16T08:49:17;98166.84;;;12.97;100.00
33280;BME280;20403;43.114;12.434;2022-12-16T08:52:04;98178.09;;;12.98;100.00
33280;BME280;20403;43.114;12.434;2022-12-16T08:54:48;98182.81;;;12.96;100.00
33280;BME280;20403;43.114;12.434;2022-12-16T08:57:32;98179.66;;;12.94;100.00
33280;BME280;20403;43.114;12.434;2022-12-16T09:00:16;98173.13;;;12.96;100.00
33280;BME280;20403;43.114;12.434;2022-12-16T09:03:00;98165.28;;;13.01;100.00
33280;BME280;20403;43.114;12.434;2022-12-16T09:05:44;98161.38;;;13.04;100.00
33280;BME280;20403;43.114;12.434;2022-12-16T09:08:28;98154.28;;;13.04;100.00
33280;BME280;20403;43.114;12.434;2022-12-16T09:11:12;98156.13;;;13.09;100.00
33280;BME280;20403;43.114;12.434;2022-12-16T09:13:55;98148.28;;;13.09;100.00
33280;BME280;20403;43.114;12.434;2022-12-16T09:16:39;98147.75;;;13.07;100.00
33280;BME280;20403;43.114;12.434;2022-12-16T09:19:23;98144.06;;;13.03;100.00
33280;BME280;20403;43.114;12.434;2022-12-16T09:22:07;98144.88;;;13.03;100.00
33280;BME280;20403;43.114;12.434;2022-12-16T09:24:59;98145.13;;;12.97;100.00
33280;BME280;20403;43.114;12.434;2022-12-16T09:27:43;98143.81;;;13.04;100.00
33280;BME280;20403;43.114;12.434;2022-12-16T09:30:26;98139.38;;;13.05;100.00
33280;BME280;20403;43.114;12.434;2022-12-16T09:33:10;98132.31;;;13.11;100.00
33280;BME280;20403;43.114;12.434;2022-12-16T09:35:54;98141.22;;;13.20;100.00
33280;BME280;20403;43.114;12.434;2022-12-16T09:38:38;98151.41;;;13.16;100.00
33280;BME280;20403;43.114;12.434;2022-12-16T09:41:44;98159.28;;;13.11;100.00
33280;BME280;20403;43.114;12.434;2022-12-16T09:50:24;98141.22;;;12.94;100.00
33280;BME280;20403;43.114;12.434;2022-12-16T09:53:16;98151.94;;;12.88;100.00
33280;BME280;20403;43.114;12.434;2022-12-16T09:56:02;98138.84;;;12.82;100.00
33280;BME280;20403;43.114;12.434;2022-12-16T09:58:52;98112.59;;;12.36;100.00
33280;BME280;20403;43.114;12.434;2022-12-16T10:01:39;98121.94;;;12.22;100.00
33280;BME280;20403;43.114;12.434;2022-12-16T10:04:23;98139.97;;;12.24;100.00
33280;BME280;20403;43.114;12.434;2022-12-16T10:07:09;98135.31;;;12.31;100.00
33280;BME280;20403;43.114;12.434;2022-12-16T10:10:04;98127.50;;;12.41;100.00
33280;BME280;20403;43.114;12.434;2022-12-16T10:12:54;98111.84;;;12.51;100.00
33280;BME280;20403;43.114;12.434;2022-12-16T10:15:52;98167.03;;;12.55;100.00
33280;BME280;20403;43.114;12.434;2022-12-16T10:27:14;98154.69;;;12.45;100.00
33280;BME280;20403;43.114;12.434;2022-12-16T10:29:58;98151.28;;;12.39;100.00
33280;BME280;20403;43.114;12.434;2022-12-16T10:32:47;98157.50;;;12.23;100.00
33280;BME280;20403;43.114;12.434;2022-12-16T10:35:40;98149.09;;;12.16;100.00
33280;BME280;20403;43.114;12.434;2022-12-16T10:41:15;98156.72;;;11.80;100.00
33280;BME280;20403;43.114;12.434;2022-12-16T10:43:59;98144.72;;;11.84;100.00
33280;BME280;20403;43.114;12.434;2022-12-16T10:46:43;98155.19;;;11.84;100.00
33280;BME280;20403;43.114;12.434;2022-12-16T10:49:27;98175.78;;;11.81;100.00
33280;BME280;20403;43.114;12.434;2022-12-16T10:52:11;98174.75;;;11.82;100.00
33280;BME280;20403;43.114;12.434;2022-12-16T10:55:18;98161.41;;;11.78;100.00
33280;BME280;20403;43.114;12.434;2022-12-16T11:01:27;98155.13;;;11.74;100.00
33280;BME280;20403;43.114;12.434;2022-12-16T11:04:31;98152.00;;;11.77;100.00
33280;BME280;20403;43.114;12.434;2022-12-16T11:13:50;98135.66;;;11.92;100.00
33280;BME280;20403;43.114;12.434;2022-12-16T11:16:16;98124.19;;;11.98;100.00
33280;BME280;20403;43.114;12.434;2022-12-16T11:19:02;98112.75;;;12.09;100.00
33280;BME280;20403;43.114;12.434;2022-12-16T11:21:46;98119.28;;;12.12;100.00
33280;BME280;20403;43.114;12.434;2022-12-16T11:24:30;98116.69;;;12.17;100.00
33280;BME280;20403;43.114;12.434;2022-12-16T11:27:24;98106.78;;;12.24;100.00
33280;BME280;20403;43.114;12.434;2022-12-16T11:32:59;98099.47;;;12.26;100.00
33280;BME280;20403;43.114;12.434;2022-12-16T11:35:51;98089.28;;;12.25;100.00
33280;BME280;20403;43.114;12.434;2022-12-16T11:38:38;98097.13;;;12.25;100.00
33280;BME280;20403;43.114;12.434;2022-12-16T11:41:30;98107.84;;;12.23;100.00
33280;BME280;20403;43.114;12.434;2022-12-16T11:44:17;98104.69;;;12.26;100.00
33280;BME280;20403;43.114;12.434;2022-12-16T11:47:02;98119.34;;;12.27;100.00
33280;BME280;20403;43.114;12.434;2022-12-16T11:49:47;98123.81;;;12.32;100.00
33280;BME280;20403;43.114;12.434;2022-12-16T11:52:40;98128.22;;;12.26;100.00
33280;BME280;20403;43.114;12.434;2022-12-16T11:55:26;98123.81;;;12.32;100.00
33280;BME280;20403;43.114;12.434;2022-12-16T11:58:14;98119.13;;;12.39;100.00
33280;BME280;20403;43.114;12.434;2022-12-16T12:01:07;98119.38;;;12.43;100.00
33280;BME280;20403;43.114;12.434;2022-12-16T12:03:53;98112.59;;;12.42;100.00
33280;BME280;20403;43.114;12.434;2022-12-16T12:09:30;98107.91;;;12.49;100.00
33280;BME280;20403;43.114;12.434;2022-12-16T12:17:54;98110.56;;;12.64;100.00
33280;BME280;20403;43.114;12.434;2022-12-16T12:26:29;98116.31;;;12.76;100.00
33280;BME280;20403;43.114;12.434;2022-12-16T12:32:18;98108.47;;;12.76;100.00
33280;BME280;20403;43.114;12.434;2022-12-16T12:46:38;98122.88;;;12.84;100.00
33280;BME280;20403;43.114;12.434;2022-12-16T12:49:28;98112.69;;;12.88;100.00
33280;BME280;20403;43.114;12.434;2022-12-16T12:52:51;98116.84;;;12.89;100.00
33280;BME280;20403;43.114;12.434;2022-12-16T12:55:42;98126.25;;;12.85;100.00
33280;BME280;20403;43.114;12.434;2022-12-16T12:58:27;98109.78;;;12.84;100.00
33280;BME280;20403;43.114;12.434;2022-12-16T13:01:13;98114.25;;;12.78;100.00
33280;BME280;20403;43.114;12.434;2022-12-16T13:04:05;98117.88;;;12.77;100.00
33280;BME280;20403;43.114;12.434;2022-12-16T13:06:49;98115.28;;;12.77;100.00
33280;BME280;20403;43.114;12.434;2022-12-16T13:09:35;98114.25;;;12.73;100.00
33280;BME280;20403;43.114;12.434;2022-12-16T13:12:24;98121.28;;;12.73;100.00
33280;BME280;20403;43.114;12.434;2022-12-16T13:20:42;98115.31;;;12.88;100.00
33280;BME280;20403;43.114;12.434;2022-12-16T13:26:10;98118.69;;;12.88;100.00
33280;BME280;20403;43.114;12.434;2022-12-16T13:29:05;98127.31;;;12.89;100.00
33280;BME280;20403;43.114;12.434;2022-12-16T13:35:24;98124.19;;;12.87;100.00
33280;BME280;20403;43.114;12.434;2022-12-16T13:41:01;98133.59;;;12.88;100.00
33280;BME280;20403;43.114;12.434;2022-12-16T13:43:53;98135.44;;;12.92;100.00
33280;BME280;20403;43.114;12.434;2022-12-16T13:58:19;98150.38;;;12.97;100.00
33280;BME280;20403;43.114;12.434;2022-12-16T14:01:04;98157.94;;;12.98;100.00
33280;BME280;20403;43.114;12.434;2022-12-16T14:03:52;98168.16;;;12.90;100.00
33280;BME280;20403;43.114;12.434;2022-12-16T14:06:36;98167.88;;;12.86;100.00
33280;BME280;20403;43.114;12.434;2022-12-16T14:09:35;98168.41;;;12.83;100.00
33280;BME280;20403;43.114;12.434;2022-12-16T14:12:22;98162.34;;;12.77;100.00
33280;BME280;20403;43.114;12.434;2022-12-16T14:15:22;98168.66;;;12.76;100.00
33280;BME280;20403;43.114;12.434;2022-12-16T14:21:23;98156.09;;;12.78;100.00
33280;BME280;20403;43.114;12.434;2022-12-16T14:24:16;98166.81;;;12.82;100.00
33280;BME280;20403;43.114;12.434;2022-12-16T14:27:11;98162.09;;;12.74;100.00
33280;BME280;20403;43.114;12.434;2022-12-16T14:29:55;98154.50;;;12.77;100.00
33280;BME280;20403;43.114;12.434;2022-12-16T14:32:39;98158.97;;;12.77;100.00
33280;BME280;20403;43.114;12.434;2022-12-16T14:35:24;98159.22;;;12.75;100.00
33280;BME280;20403;43.114;12.434;2022-12-16T14:38:12;98156.59;;;12.75;100.00
33280;BME280;20403;43.114;12.434;2022-12-16T14:41:02;98164.19;;;12.72;100.00
33280;BME280;20403;43.114;12.434;2022-12-16T14:43:46;98162.88;;;12.69;100.00
33280;BME280;20403;43.114;12.434;2022-12-16T14:46:30;98169.66;;;12.65;100.00
33280;BME280;20403;43.114;12.434;2022-12-16T14:52:01;98169.66;;;12.55;100.00
33280;BME280;20403;43.114;12.434;2022-12-16T14:54:45;98174.84;;;12.50;100.00
33280;BME280;20403;43.114;12.434;2022-12-16T14:57:30;98171.19;;;12.51;100.00
33280;BME280;20403;43.114;12.434;2022-12-16T15:00:15;98174.56;;;12.46;100.00
33280;BME280;20403;43.114;12.434;2022-12-16T15:05:56;98178.75;;;12.42;100.00
33280;BME280;20403;43.114;12.434;2022-12-16T15:08:47;98183.72;;;12.44;100.00
33280;BME280;20403;43.114;12.434;2022-12-16T15:11:31;98185.03;;;12.41;100.00
33280;BME280;20403;43.114;12.434;2022-12-16T15:14:17;98181.34;;;12.42;100.00
33280;BME280;20403;43.114;12.434;2022-12-16T15:17:04;98189.97;;;12.37;100.00
33280;BME280;20403;43.114;12.434;2022-12-16T15:19:49;98194.66;;;12.40;100.00
33280;BME280;20403;43.114;12.434;2022-12-16T15:22:34;98203.09;;;12.48;100.00
33280;BME280;20403;43.114;12.434;2022-12-16T15:28:02;98206.72;;;12.42;100.00
33280;BME280;20403;43.114;12.434;2022-12-16T15:30:46;98203.09;;;12.48;100.00
33280;BME280;20403;43.114;12.434;2022-12-16T15:33:31;98209.34;;;12.42;100.00
33280;BME280;20403;43.114;12.434;2022-12-16T15:39:07;98209.34;;;12.47;100.00
33280;BME280;20403;43.114;12.434;2022-12-16T15:41:52;98213.28;;;12.49;100.00
33280;BME280;20403;43.114;12.434;2022-12-16T15:44:36;98216.66;;;12.45;100.00
33280;BME280;20403;43.114;12.434;2022-12-16T15:47:30;98204.63;;;12.44;100.00
33280;BME280;20403;43.114;12.434;2022-12-16T15:50:14;98213.50;;;12.43;100.00